Gulf Mews — C6VQ2 — position and weather

sailwx.info

Track history (hours):
 
Tides and Currents Weather Stations Pressure Air Temp Water Temp Dewpoint Dewpoint Depression Visibility Wind Speed Wind Dir Waves Ship Positions

Gulf Mews

Last reported at 2018-Jun-13 18:53 UTC. Time now 2018-Jun-19 04:28 UTC.
Position N 02°04' E 104°48'.

Length 184 m; draft 7.5 m.

Type: Ship. MMSI: 309198853.

Date/timePositionNaut miles runAvg speedWind from/ knotsBaromVisibWave heightAir tempDewpointWater temp
2018-Jun-13 18:53N 02°04' E 104°48'2814.0
2018-Jun-13 16:56N 01°38' E 104°40'613.2
2018-Jun-13 16:28N 01°33' E 104°36'713.0
2018-Jun-13 15:55N 01°28' E 104°31'613.0
2018-Jun-13 15:28N 01°24' E 104°27'714.0
2018-Jun-13 14:59N 01°19' E 104°22'613.0
2018-Jun-13 14:30N 01°16' E 104°17'713.0
2018-Jun-13 14:00N 01°16' E 104°10'612.9
2018-Jun-13 13:30N 01°15' E 104°04'611.3
2018-Jun-13 13:00N 01°14' E 103°58'611.2
2018-Jun-13 12:30N 01°12' E 103°53'510.4
2018-Jun-13 12:00N 01°10' E 103°48'510.9
2018-Jun-13 11:30N 01°06' E 103°44'510.8
2018-Jun-13 11:00N 01°03' E 103°40'510.6
2018-Jun-13 10:30N 01°05' E 103°35'5 9.1
2018-Jun-13 10:00N 01°08' E 103°31'611.8
2018-Jun-13 09:30N 01°11' E 103°36'5 9.9
2018-Jun-13 09:00N 01°10' E 103°41'1 1.6
2018-Jun-13 08:20N 01°11' E 103°42'0 0.0
2018-Jun-13 07:59N 01°11' E 103°42'0 0.0
2018-Jun-13 07:26N 01°11' E 103°42'0 0.0
2018-Jun-13 06:59N 01°11' E 103°42'0 0.1
2018-Jun-13 06:28N 01°11' E 103°42'0 0.0
2018-Jun-13 05:56N 01°11' E 103°42'0 0.1
2018-Jun-13 05:29N 01°11' E 103°42'0 0.1
2018-Jun-13 04:52N 01°11' E 103°42'0 0.1
2018-Jun-13 04:26N 01°11' E 103°42'0 0.1
2018-Jun-13 03:59N 01°11' E 103°42'0 0.1
2018-Jun-13 03:29N 01°11' E 103°42'0 0.1
2018-Jun-13 02:56N 01°11' E 103°42'0 0.2
2018-Jun-13 02:29N 01°11' E 103°42'0 0.1
2018-Jun-13 01:52N 01°11' E 103°42'0 0.0
2018-Jun-13 01:28N 01°11' E 103°42'0 0.0
2018-Jun-13 00:56N 01°11' E 103°42'0 0.1
2018-Jun-13 00:23N 01°11' E 103°42'0 0.1
2018-Jun-12 23:53N 01°11' E 103°42'0 0.2
2018-Jun-12 23:30N 01°11' E 103°42'1 2.2
2018-Jun-12 23:00N 01°11' E 103°41'4 7.3
2018-Jun-12 22:30N 01°12' E 103°38'4 7.2
2018-Jun-12 21:59N 01°12' E 103°34'3 7.0
2018-Jun-12 21:30N 01°11' E 103°31'5 9.2
2018-Jun-12 21:00N 01°11' E 103°26'511.1
2018-Jun-12 20:30N 01°14' E 103°22'5 9.4
2018-Jun-12 19:59N 01°17' E 103°18'  
Track history (hours):
 
Tides and Currents Weather Stations Pressure Air Temp Water Temp Dewpoint Dewpoint Depression Visibility Wind Speed Wind Dir Waves Ship Positions

Gulf Mews

Last reported at 2018-Jun-13 18:53 UTC. Time now 2018-Jun-19 04:28 UTC.
Position N 02°04' E 104°48'.

Length 184 m; draft 7.5 m.

Type: Ship. MMSI: 309198853.

Date/timePositionNaut miles runAvg speedWind from/ knotsBaromVisibWave heightAir tempDewpointWater temp
2018-Jun-13 18:53N 02°04' E 104°48'2814.0
2018-Jun-13 16:56N 01°38' E 104°40'613.2
2018-Jun-13 16:28N 01°33' E 104°36'713.0
2018-Jun-13 15:55N 01°28' E 104°31'613.0
2018-Jun-13 15:28N 01°24' E 104°27'714.0
2018-Jun-13 14:59N 01°19' E 104°22'613.0
2018-Jun-13 14:30N 01°16' E 104°17'713.0
2018-Jun-13 14:00N 01°16' E 104°10'612.9
2018-Jun-13 13:30N 01°15' E 104°04'611.3
2018-Jun-13 13:00N 01°14' E 103°58'611.2
2018-Jun-13 12:30N 01°12' E 103°53'510.4
2018-Jun-13 12:00N 01°10' E 103°48'510.9
2018-Jun-13 11:30N 01°06' E 103°44'510.8
2018-Jun-13 11:00N 01°03' E 103°40'510.6
2018-Jun-13 10:30N 01°05' E 103°35'5 9.1
2018-Jun-13 10:00N 01°08' E 103°31'611.8
2018-Jun-13 09:30N 01°11' E 103°36'5 9.9
2018-Jun-13 09:00N 01°10' E 103°41'1 1.6
2018-Jun-13 08:20N 01°11' E 103°42'0 0.0
2018-Jun-13 07:59N 01°11' E 103°42'0 0.0
2018-Jun-13 07:26N 01°11' E 103°42'0 0.0
2018-Jun-13 06:59N 01°11' E 103°42'0 0.1
2018-Jun-13 06:28N 01°11' E 103°42'0 0.0
2018-Jun-13 05:56N 01°11' E 103°42'0 0.1
2018-Jun-13 05:29N 01°11' E 103°42'0 0.1
2018-Jun-13 04:52N 01°11' E 103°42'0 0.1
2018-Jun-13 04:26N 01°11' E 103°42'0 0.1
2018-Jun-13 03:59N 01°11' E 103°42'0 0.1
2018-Jun-13 03:29N 01°11' E 103°42'0 0.1
2018-Jun-13 02:56N 01°11' E 103°42'0 0.2
2018-Jun-13 02:29N 01°11' E 103°42'0 0.1
2018-Jun-13 01:52N 01°11' E 103°42'0 0.0
2018-Jun-13 01:28N 01°11' E 103°42'0 0.0
2018-Jun-13 00:56N 01°11' E 103°42'0 0.1
2018-Jun-13 00:23N 01°11' E 103°42'0 0.1
2018-Jun-12 23:53N 01°11' E 103°42'0 0.2
2018-Jun-12 23:30N 01°11' E 103°42'1 2.2
2018-Jun-12 23:00N 01°11' E 103°41'4 7.3
2018-Jun-12 22:30N 01°12' E 103°38'4 7.2
2018-Jun-12 21:59N 01°12' E 103°34'3 7.0
2018-Jun-12 21:30N 01°11' E 103°31'5 9.2
2018-Jun-12 21:00N 01°11' E 103°26'511.1
2018-Jun-12 20:30N 01°14' E 103°22'5 9.4
2018-Jun-12 19:59N 01°17' E 103°18'  

Dump ship's entire track history